This is the latest recevied weather packets stored in our database for station/object KB1LTW-13. If no packets are shown the sender has not sent any weather packets the latest 10 day(s).
| Time | Temp. | Humidity | Pressure | Rain* | Wind** | Luminosity | Snow |
|---|---|---|---|---|---|---|---|
| 1777295484 | 12.78° C | 45% | 1026.7 hPa | 0 mm | - | 336 W/m² | - |
| 1777292486 | 11.11° C | 50% | 1026.3 hPa | 0 mm | - | 196 W/m² | - |
| 1777291880 | 11.11° C | 50% | 1026.4 hPa | 0 mm | - | 103 W/m² | - |
| 1777290699 | 10.56° C | 53% | 1026.1 hPa | 0 mm | - | 124 W/m² | - |
| 1777290080 | 9.44° C | 59% | 1026.2 hPa | 0 mm | - | 90 W/m² | - |
| 1777288918 | 6.11° C | 80% | 1026.1 hPa | 0 mm | - | 40 W/m² | - |
| 1777283481 | 5.56° C | 80% | 1025.3 hPa | 0 mm | - | 2 W/m² | - |
| 1777272081 | 6.67° C | 79% | 1024.4 hPa | 0 mm | - | 0 W/m² | - |
| 1777270285 | 6.67° C | 80% | 1024.4 hPa | 0 mm | - | 0 W/m² | - |
| 1777267884 | 7.22° C | 80% | 1024.6 hPa | 0 mm | - | 0 W/m² | - |
| 1777266682 | 7.22° C | 80% | 1024.7 hPa | 0 mm | - | 0 W/m² | - |
| 1777263079 | 7.78° C | 77% | 1024.6 hPa | 0 mm | - | 0 W/m² | - |
| 1777261286 | 7.78° C | 78% | 1024.5 hPa | 0 mm | - | 0 W/m² | - |
| 1777257679 | 7.22° C | 79% | 1024.4 hPa | 0 mm | - | 0 W/m² | - |
| 1777257105 | 7.78° C | 77% | 1024.3 hPa | 0 mm | - | 0 W/m² | - |
| 1777255297 | 8.33° C | 74% | 1024.2 hPa | 0 mm | - | 0 W/m² | - |
| 1777253480 | 8.89° C | 70% | 1024.1 hPa | 0 mm | - | 0 W/m² | - |
| 1777244478 | 14.44° C | 40% | 1022.2 hPa | 0 mm | - | 18 W/m² | - |
| 1777242701 | 15.56° C | 37% | 1022 hPa | 0 mm | - | 27 W/m² | - |
| 1777242096 | 15.56° C | 36% | 1021.8 hPa | 0 mm | - | 31 W/m² | - |
| 1777237881 | 17.78° C | 32% | 1021.6 hPa | 0 mm | - | 192 W/m² | - |
| 1777229480 | 15° C | 44% | 1021.6 hPa | 0 mm | - | 307 W/m² | - |
| 1777228884 | 15° C | 45% | 1021.8 hPa | 0 mm | - | 303 W/m² | - |
| 1777227684 | 14.44° C | 43% | 1022 hPa | 0 mm | - | 118 W/m² | - |
| 1777221079 | 12.22° C | 58% | 1022.6 hPa | 0 mm | - | 827 W/m² | - |
* Rain latest hour (hover to see other rain measurements)
** Current wind speed in m/s (hover to see current wind gust speed)